Camp Beauregard, Louisiana
Current Conditions -  °F | °C
As of 11:53 AM on Friday 21 Nov 2014 (Local Time) from KESF Reporting Station
Overcast Overcast  
Wind Chill: 68°   Ceiling: 8000
Heat Index: 68°   Visibility: 10mi
Dew Point: 46°   Wind: 9mph
Humidity: 45%   Direction: 130°SE
Pressure: 30.24"   Gusts: NA
Location:  31.3398°N, 92.3739°W
Report Text: KESF 211753Z AUTO 13008KT 10SM OVC080 20/08 A3024 RMK AO2 SLP239 60000 T02000078 10206 20100 58009
Loading
Personal Weather Stations






























Interactive Weather Map New forecast layout! Learn more

10-Day Weather Forecast

Advertisements
Track Severe Weather on mobile